Weather at Burnpur Airport

Public forecast

Using degrees Celsius for public forecast. Weather courtesy of forecast.io.

Closest aviation weather report (METAR) to Burnpur Airport

Closest report is Sonari Airport, 66.3 nm (122.8 km) SW. Retrieved 2020/10/23 10:00 UTC (43 minutes ago):

VEJS 231000Z 04002KT 5000 HZ SCT015 SCT025 BKN100 31/21 Q1002

Closest aviation forecast (TAF) to Burnpur Airport

Forecast is more than 12 hours old.

Closest forecast is Sonari Airport, 66.3 nm (122.8 km) SW. Retrieved 2009/11/01 09:00 UTC (11 years ago):

TAF VEJS 010900Z 0112/0121 36004KT 2500 HZ FEW020 SCT025 SCT100 BECMG 0116/0118 00000KT 2000 HZ FEW018 SCT BECMG 0119/0121 00000KT 1600 BR